Terminal Aerodrome Forecast
Issued by NWS San Angelo, TX

Home | Current Version | Previous Version | Text Only | Print | Product List | Glossary On
Versions: 1 2 3 4 5 6 7 8 9 10 11 12 13 14 15 16 17 18 19 20
728
FTUS44 KSJT 302334 AAA
TAFSJT
TAF AMD
KSJT 302334Z 3100/3124 19010G15KT P6SM VCSH SCT080
      TEMPO 3100/3101 VRB25G35KT 5SM -SHRA BKN070
     FM310100 17007KT P6SM SKC
     FM311500 19011G18KT P6SM SCT060=

USA.gov is the U.S. government's official web portal to all federal, state and local government web resources and services.